sensor_id;sensor_type;location;lat;lon;timestamp;P1;durP1;ratioP1;P2;durP2;ratioP2
7523;SDS011;3803;51.666;7.630;2022-12-18T00:00:04;38.50;;;21.63;;
7523;SDS011;3803;51.666;7.630;2022-12-18T00:00:35;39.50;;;22.10;;
7523;SDS011;3803;51.666;7.630;2022-12-18T00:01:01;38.08;;;21.60;;
7523;SDS011;3803;51.666;7.630;2022-12-18T00:01:27;40.92;;;22.05;;
7523;SDS011;3803;51.666;7.630;2022-12-18T00:01:48;42.13;;;22.33;;
7523;SDS011;3803;51.666;7.630;2022-12-18T00:02:09;42.85;;;22.80;;
7523;SDS011;3803;51.666;7.630;2022-12-18T00:02:31;38.83;;;22.20;;
7523;SDS011;3803;51.666;7.630;2022-12-18T00:02:51;37.35;;;21.70;;
7523;SDS011;3803;51.666;7.630;2022-12-18T00:03:15;35.80;;;21.67;;
7523;SDS011;3803;51.666;7.630;2022-12-18T00:03:35;34.63;;;22.00;;
7523;SDS011;3803;51.666;7.630;2022-12-18T00:03:56;35.60;;;22.13;;
7523;SDS011;3803;51.666;7.630;2022-12-18T00:04:21;35.88;;;21.60;;
7523;SDS011;3803;51.666;7.630;2022-12-18T00:04:42;37.92;;;20.98;;
7523;SDS011;3803;51.666;7.630;2022-12-18T00:05:03;35.22;;;20.30;;
7523;SDS011;3803;51.666;7.630;2022-12-18T00:05:24;35.67;;;21.40;;
7523;SDS011;3803;51.666;7.630;2022-12-18T00:05:51;37.22;;;21.95;;
7523;SDS011;3803;51.666;7.630;2022-12-18T00:06:12;36.83;;;21.70;;
7523;SDS011;3803;51.666;7.630;2022-12-18T00:06:34;35.38;;;21.40;;
7523;SDS011;3803;51.666;7.630;2022-12-18T00:06:55;35.00;;;21.55;;
7523;SDS011;3803;51.666;7.630;2022-12-18T00:07:16;33.80;;;21.65;;
7523;SDS011;3803;51.666;7.630;2022-12-18T00:07:36;35.00;;;21.77;;
7523;SDS011;3803;51.666;7.630;2022-12-18T00:07:57;35.83;;;22.00;;
7523;SDS011;3803;51.666;7.630;2022-12-18T00:08:18;37.87;;;22.37;;
7523;SDS011;3803;51.666;7.630;2022-12-18T00:08:40;38.95;;;21.98;;
7523;SDS011;3803;51.666;7.630;2022-12-18T00:09:01;41.63;;;21.90;;
7523;SDS011;3803;51.666;7.630;2022-12-18T00:09:22;41.95;;;22.02;;
7523;SDS011;3803;51.666;7.630;2022-12-18T00:09:43;41.30;;;22.13;;
7523;SDS011;3803;51.666;7.630;2022-12-18T00:10:04;38.40;;;21.90;;
7523;SDS011;3803;51.666;7.630;2022-12-18T00:10:25;36.25;;;21.50;;
7523;SDS011;3803;51.666;7.630;2022-12-18T00:10:47;34.13;;;21.40;;
7523;SDS011;3803;51.666;7.630;2022-12-18T00:11:08;38.80;;;21.90;;
7523;SDS011;3803;51.666;7.630;2022-12-18T00:11:32;42.88;;;22.35;;
7523;SDS011;3803;51.666;7.630;2022-12-18T00:11:52;41.95;;;21.83;;
7523;SDS011;3803;51.666;7.630;2022-12-18T00:12:13;42.42;;;22.17;;
7523;SDS011;3803;51.666;7.630;2022-12-18T00:12:33;43.05;;;21.67;;
7523;SDS011;3803;51.666;7.630;2022-12-18T00:12:54;41.17;;;21.50;;
7523;SDS011;3803;51.666;7.630;2022-12-18T00:13:15;38.90;;;21.43;;
7523;SDS011;3803;51.666;7.630;2022-12-18T00:13:35;37.35;;;21.50;;
7523;SDS011;3803;51.666;7.630;2022-12-18T00:13:56;40.47;;;21.88;;
7523;SDS011;3803;51.666;7.630;2022-12-18T00:14:18;42.97;;;22.10;;
7523;SDS011;3803;51.666;7.630;2022-12-18T00:14:39;41.97;;;22.30;;
7523;SDS011;3803;51.666;7.630;2022-12-18T00:15:00;38.15;;;21.73;;
7523;SDS011;3803;51.666;7.630;2022-12-18T00:15:20;38.05;;;21.77;;
7523;SDS011;3803;51.666;7.630;2022-12-18T00:15:41;36.80;;;21.60;;
7523;SDS011;3803;51.666;7.630;2022-12-18T00:16:05;40.30;;;22.20;;
7523;SDS011;3803;51.666;7.630;2022-12-18T00:16:29;42.75;;;23.05;;
7523;SDS011;3803;51.666;7.630;2022-12-18T00:16:51;42.78;;;23.45;;
7523;SDS011;3803;51.666;7.630;2022-12-18T00:17:11;38.03;;;22.65;;
7523;SDS011;3803;51.666;7.630;2022-12-18T00:17:32;35.23;;;22.30;;
7523;SDS011;3803;51.666;7.630;2022-12-18T00:17:53;36.30;;;22.30;;
7523;SDS011;3803;51.666;7.630;2022-12-18T00:18:13;38.65;;;22.48;;
7523;SDS011;3803;51.666;7.630;2022-12-18T00:18:34;38.50;;;22.27;;
7523;SDS011;3803;51.666;7.630;2022-12-18T00:18:55;37.25;;;21.92;;
7523;SDS011;3803;51.666;7.630;2022-12-18T00:19:19;41.40;;;21.85;;
7523;SDS011;3803;51.666;7.630;2022-12-18T00:19:40;41.10;;;21.58;;
7523;SDS011;3803;51.666;7.630;2022-12-18T00:20:00;41.00;;;21.52;;
7523;SDS011;3803;51.666;7.630;2022-12-18T00:20:21;36.15;;;20.85;;
7523;SDS011;3803;51.666;7.630;2022-12-18T00:20:45;33.17;;;20.10;;
7523;SDS011;3803;51.666;7.630;2022-12-18T00:21:07;34.60;;;20.90;;
7523;SDS011;3803;51.666;7.630;2022-12-18T00:21:29;35.78;;;21.40;;
7523;SDS011;3803;51.666;7.630;2022-12-18T00:21:51;36.13;;;21.60;;
7523;SDS011;3803;51.666;7.630;2022-12-18T00:22:12;35.30;;;20.90;;
7523;SDS011;3803;51.666;7.630;2022-12-18T00:22:32;35.90;;;20.73;;
7523;SDS011;3803;51.666;7.630;2022-12-18T00:22:53;38.00;;;20.70;;
7523;SDS011;3803;51.666;7.630;2022-12-18T00:23:14;38.15;;;20.73;;
7523;SDS011;3803;51.666;7.630;2022-12-18T00:23:35;37.78;;;21.05;;
7523;SDS011;3803;51.666;7.630;2022-12-18T00:23:58;35.80;;;20.90;;
7523;SDS011;3803;51.666;7.630;2022-12-18T00:24:19;33.45;;;20.63;;
7523;SDS011;3803;51.666;7.630;2022-12-18T00:24:40;31.60;;;20.20;;
7523;SDS011;3803;51.666;7.630;2022-12-18T00:25:03;34.22;;;20.67;;
7523;SDS011;3803;51.666;7.630;2022-12-18T00:25:23;33.67;;;20.75;;
7523;SDS011;3803;51.666;7.630;2022-12-18T00:25:44;32.63;;;20.40;;
7523;SDS011;3803;51.666;7.630;2022-12-18T00:26:06;32.33;;;20.73;;
7523;SDS011;3803;51.666;7.630;2022-12-18T00:26:31;34.00;;;21.23;;
7523;SDS011;3803;51.666;7.630;2022-12-18T00:26:55;33.90;;;21.60;;
7523;SDS011;3803;51.666;7.630;2022-12-18T00:27:16;36.50;;;21.87;;
7523;SDS011;3803;51.666;7.630;2022-12-18T00:27:36;37.80;;;21.77;;
7523;SDS011;3803;51.666;7.630;2022-12-18T00:27:57;40.05;;;22.38;;
7523;SDS011;3803;51.666;7.630;2022-12-18T00:28:19;38.05;;;22.40;;
7523;SDS011;3803;51.666;7.630;2022-12-18T00:28:40;39.03;;;21.88;;
7523;SDS011;3803;51.666;7.630;2022-12-18T00:29:06;37.78;;;21.38;;
7523;SDS011;3803;51.666;7.630;2022-12-18T00:29:31;39.25;;;21.73;;
7523;SDS011;3803;51.666;7.630;2022-12-18T00:29:51;39.63;;;21.83;;
7523;SDS011;3803;51.666;7.630;2022-12-18T00:30:12;40.07;;;22.03;;
7523;SDS011;3803;51.666;7.630;2022-12-18T00:30:32;37.97;;;22.20;;
7523;SDS011;3803;51.666;7.630;2022-12-18T00:31:08;38.50;;;21.50;;
7523;SDS011;3803;51.666;7.630;2022-12-18T00:31:30;39.83;;;20.73;;
7523;SDS011;3803;51.666;7.630;2022-12-18T00:31:51;37.25;;;21.17;;
7523;SDS011;3803;51.666;7.630;2022-12-18T00:32:11;38.33;;;22.02;;
7523;SDS011;3803;51.666;7.630;2022-12-18T00:32:32;36.72;;;21.25;;
7523;SDS011;3803;51.666;7.630;2022-12-18T00:32:53;36.97;;;21.13;;
7523;SDS011;3803;51.666;7.630;2022-12-18T00:33:13;37.20;;;21.10;;
7523;SDS011;3803;51.666;7.630;2022-12-18T00:33:35;37.70;;;21.85;;
7523;SDS011;3803;51.666;7.630;2022-12-18T00:33:56;39.05;;;22.05;;
7523;SDS011;3803;51.666;7.630;2022-12-18T00:34:17;37.65;;;21.33;;
7523;SDS011;3803;51.666;7.630;2022-12-18T00:34:38;38.22;;;21.52;;
7523;SDS011;3803;51.666;7.630;2022-12-18T00:35:06;38.67;;;21.47;;
7523;SDS011;3803;51.666;7.630;2022-12-18T00:35:27;37.55;;;20.52;;
7523;SDS011;3803;51.666;7.630;2022-12-18T00:35:48;36.90;;;20.43;;
7523;SDS011;3803;51.666;7.630;2022-12-18T00:36:12;35.03;;;20.07;;
7523;SDS011;3803;51.666;7.630;2022-12-18T00:36:35;37.83;;;21.13;;
7523;SDS011;3803;51.666;7.630;2022-12-18T00:36:55;38.22;;;21.73;;
7523;SDS011;3803;51.666;7.630;2022-12-18T00:37:16;38.90;;;22.10;;
7523;SDS011;3803;51.666;7.630;2022-12-18T00:37:37;35.30;;;21.30;;
7523;SDS011;3803;51.666;7.630;2022-12-18T00:37:58;33.53;;;20.05;;
7523;SDS011;3803;51.666;7.630;2022-12-18T00:38:19;32.30;;;19.80;;
7523;SDS011;3803;51.666;7.630;2022-12-18T00:38:39;34.28;;;20.10;;
7523;SDS011;3803;51.666;7.630;2022-12-18T00:39:01;34.42;;;20.48;;
7523;SDS011;3803;51.666;7.630;2022-12-18T00:39:24;35.45;;;20.23;;
7523;SDS011;3803;51.666;7.630;2022-12-18T00:39:45;37.65;;;20.70;;
7523;SDS011;3803;51.666;7.630;2022-12-18T00:40:05;38.25;;;21.70;;
7523;SDS011;3803;51.666;7.630;2022-12-18T00:40:31;40.83;;;21.90;;
7523;SDS011;3803;51.666;7.630;2022-12-18T00:40:52;39.33;;;21.92;;
7523;SDS011;3803;51.666;7.630;2022-12-18T00:41:13;40.70;;;21.93;;
7523;SDS011;3803;51.666;7.630;2022-12-18T00:41:58;35.67;;;20.30;;
7523;SDS011;3803;51.666;7.630;2022-12-18T00:42:37;34.25;;;20.60;;
7523;SDS011;3803;51.666;7.630;2022-12-18T00:43:16;37.20;;;20.10;;
7523;SDS011;3803;51.666;7.630;2022-12-18T00:43:37;38.57;;;20.20;;
7523;SDS011;3803;51.666;7.630;2022-12-18T00:43:58;38.28;;;20.58;;
7523;SDS011;3803;51.666;7.630;2022-12-18T00:44:19;38.83;;;21.00;;
7523;SDS011;3803;51.666;7.630;2022-12-18T00:44:40;36.45;;;20.85;;
7523;SDS011;3803;51.666;7.630;2022-12-18T00:45:00;35.63;;;20.95;;
7523;SDS011;3803;51.666;7.630;2022-12-18T00:45:24;35.35;;;20.85;;
7523;SDS011;3803;51.666;7.630;2022-12-18T00:45:47;36.35;;;21.45;;
7523;SDS011;3803;51.666;7.630;2022-12-18T00:46:07;36.30;;;21.37;;
7523;SDS011;3803;51.666;7.630;2022-12-18T00:46:28;38.08;;;21.80;;
7523;SDS011;3803;51.666;7.630;2022-12-18T00:46:49;37.70;;;21.88;;
7523;SDS011;3803;51.666;7.630;2022-12-18T00:47:09;37.58;;;21.20;;
7523;SDS011;3803;51.666;7.630;2022-12-18T00:47:30;37.80;;;21.45;;
7523;SDS011;3803;51.666;7.630;2022-12-18T00:47:51;39.33;;;21.40;;
7523;SDS011;3803;51.666;7.630;2022-12-18T00:48:23;41.60;;;22.50;;
7523;SDS011;3803;51.666;7.630;2022-12-18T00:48:44;39.75;;;22.00;;
7523;SDS011;3803;51.666;7.630;2022-12-18T00:49:05;39.28;;;22.17;;
7523;SDS011;3803;51.666;7.630;2022-12-18T00:49:25;39.97;;;22.70;;
7523;SDS011;3803;51.666;7.630;2022-12-18T00:49:46;39.37;;;22.77;;
7523;SDS011;3803;51.666;7.630;2022-12-18T00:50:07;38.20;;;21.90;;
7523;SDS011;3803;51.666;7.630;2022-12-18T00:50:28;38.28;;;21.52;;
7523;SDS011;3803;51.666;7.630;2022-12-18T00:50:49;37.30;;;21.25;;
7523;SDS011;3803;51.666;7.630;2022-12-18T00:51:10;37.47;;;21.58;;
7523;SDS011;3803;51.666;7.630;2022-12-18T00:51:30;38.33;;;22.40;;
7523;SDS011;3803;51.666;7.630;2022-12-18T00:51:52;41.58;;;22.95;;
7523;SDS011;3803;51.666;7.630;2022-12-18T00:52:15;44.10;;;23.60;;
7523;SDS011;3803;51.666;7.630;2022-12-18T00:52:36;43.40;;;23.37;;
7523;SDS011;3803;51.666;7.630;2022-12-18T00:52:59;39.33;;;22.20;;
7523;SDS011;3803;51.666;7.630;2022-12-18T00:53:20;39.20;;;22.10;;
7523;SDS011;3803;51.666;7.630;2022-12-18T00:53:40;38.53;;;22.50;;
7523;SDS011;3803;51.666;7.630;2022-12-18T00:54:10;40.90;;;23.27;;
7523;SDS011;3803;51.666;7.630;2022-12-18T00:54:31;42.97;;;23.38;;
7523;SDS011;3803;51.666;7.630;2022-12-18T00:55:41;42.55;;;24.25;;
7523;SDS011;3803;51.666;7.630;2022-12-18T00:56:01;41.28;;;23.63;;
7523;SDS011;3803;51.666;7.630;2022-12-18T00:56:22;40.97;;;23.65;;
7523;SDS011;3803;51.666;7.630;2022-12-18T00:56:43;40.58;;;24.02;;
7523;SDS011;3803;51.666;7.630;2022-12-18T00:57:04;41.00;;;23.85;;
7523;SDS011;3803;51.666;7.630;2022-12-18T00:57:25;40.73;;;23.60;;
7523;SDS011;3803;51.666;7.630;2022-12-18T00:57:45;43.38;;;24.02;;
7523;SDS011;3803;51.666;7.630;2022-12-18T00:58:06;42.75;;;23.27;;
7523;SDS011;3803;51.666;7.630;2022-12-18T00:58:29;41.45;;;22.88;;
7523;SDS011;3803;51.666;7.630;2022-12-18T00:58:50;38.22;;;22.55;;
7523;SDS011;3803;51.666;7.630;2022-12-18T00:59:11;37.95;;;22.25;;
7523;SDS011;3803;51.666;7.630;2022-12-18T00:59:32;39.70;;;22.02;;
7523;SDS011;3803;51.666;7.630;2022-12-18T00:59:54;42.20;;;21.97;;
7523;SDS011;3803;51.666;7.630;2022-12-18T01:00:15;43.72;;;22.75;;
7523;SDS011;3803;51.666;7.630;2022-12-18T01:00:35;43.65;;;23.02;;
7523;SDS011;3803;51.666;7.630;2022-12-18T01:00:56;42.38;;;23.60;;
7523;SDS011;3803;51.666;7.630;2022-12-18T01:01:17;39.08;;;23.38;;
7523;SDS011;3803;51.666;7.630;2022-12-18T01:01:38;39.88;;;23.40;;
7523;SDS011;3803;51.666;7.630;2022-12-18T01:01:59;41.72;;;22.88;;
7523;SDS011;3803;51.666;7.630;2022-12-18T01:02:20;42.58;;;23.08;;
7523;SDS011;3803;51.666;7.630;2022-12-18T01:02:41;40.60;;;23.20;;
7523;SDS011;3803;51.666;7.630;2022-12-18T01:03:03;40.35;;;23.40;;
7523;SDS011;3803;51.666;7.630;2022-12-18T01:03:24;39.40;;;22.45;;
7523;SDS011;3803;51.666;7.630;2022-12-18T01:03:46;38.17;;;21.92;;
7523;SDS011;3803;51.666;7.630;2022-12-18T01:04:24;37.17;;;22.20;;
7523;SDS011;3803;51.666;7.630;2022-12-18T01:04:45;37.08;;;22.25;;
7523;SDS011;3803;51.666;7.630;2022-12-18T01:05:08;37.55;;;21.90;;
7523;SDS011;3803;51.666;7.630;2022-12-18T01:05:30;39.10;;;22.35;;
7523;SDS011;3803;51.666;7.630;2022-12-18T01:05:51;38.40;;;21.98;;
7523;SDS011;3803;51.666;7.630;2022-12-18T01:06:13;38.38;;;22.17;;
7523;SDS011;3803;51.666;7.630;2022-12-18T01:06:35;38.88;;;22.48;;
7523;SDS011;3803;51.666;7.630;2022-12-18T01:06:55;40.10;;;22.20;;
7523;SDS011;3803;51.666;7.630;2022-12-18T01:07:16;40.63;;;22.80;;
7523;SDS011;3803;51.666;7.630;2022-12-18T01:07:38;41.05;;;22.90;;
7523;SDS011;3803;51.666;7.630;2022-12-18T01:07:58;39.53;;;22.67;;
7523;SDS011;3803;51.666;7.630;2022-12-18T01:08:19;38.78;;;22.20;;
7523;SDS011;3803;51.666;7.630;2022-12-18T01:08:40;40.90;;;22.65;;
7523;SDS011;3803;51.666;7.630;2022-12-18T01:09:00;41.40;;;22.87;;
7523;SDS011;3803;51.666;7.630;2022-12-18T01:09:21;42.00;;;22.85;;
7523;SDS011;3803;51.666;7.630;2022-12-18T01:09:42;39.50;;;22.57;;
7523;SDS011;3803;51.666;7.630;2022-12-18T01:10:03;41.03;;;23.50;;
7523;SDS011;3803;51.666;7.630;2022-12-18T01:10:25;40.72;;;24.02;;
7523;SDS011;3803;51.666;7.630;2022-12-18T01:10:46;44.22;;;23.88;;
7523;SDS011;3803;51.666;7.630;2022-12-18T01:11:10;44.13;;;23.90;;
7523;SDS011;3803;51.666;7.630;2022-12-18T01:11:33;41.08;;;22.85;;
7523;SDS011;3803;51.666;7.630;2022-12-18T01:11:56;38.97;;;22.67;;
7523;SDS011;3803;51.666;7.630;2022-12-18T01:13:16;39.58;;;22.80;;
7523;SDS011;3803;51.666;7.630;2022-12-18T01:13:37;42.38;;;22.50;;
7523;SDS011;3803;51.666;7.630;2022-12-18T01:13:59;44.78;;;22.83;;
7523;SDS011;3803;51.666;7.630;2022-12-18T01:14:20;44.30;;;22.70;;
7523;SDS011;3803;51.666;7.630;2022-12-18T01:14:41;41.83;;;22.65;;
7523;SDS011;3803;51.666;7.630;2022-12-18T01:15:02;39.35;;;22.20;;
7523;SDS011;3803;51.666;7.630;2022-12-18T01:15:23;36.97;;;21.35;;
7523;SDS011;3803;51.666;7.630;2022-12-18T01:15:49;38.33;;;21.05;;
7523;SDS011;3803;51.666;7.630;2022-12-18T01:16:11;42.25;;;22.27;;
7523;SDS011;3803;51.666;7.630;2022-12-18T01:16:33;43.92;;;22.85;;
7523;SDS011;3803;51.666;7.630;2022-12-18T01:16:54;42.10;;;23.63;;
7523;SDS011;3803;51.666;7.630;2022-12-18T01:17:14;41.95;;;22.92;;
7523;SDS011;3803;51.666;7.630;2022-12-18T01:17:35;38.17;;;21.65;;
7523;SDS011;3803;51.666;7.630;2022-12-18T01:17:56;39.23;;;21.43;;
7523;SDS011;3803;51.666;7.630;2022-12-18T01:18:16;39.63;;;22.02;;
7523;SDS011;3803;51.666;7.630;2022-12-18T01:18:37;43.70;;;23.63;;
7523;SDS011;3803;51.666;7.630;2022-12-18T01:18:58;41.40;;;23.15;;
7523;SDS011;3803;51.666;7.630;2022-12-18T01:19:20;38.63;;;22.20;;
7523;SDS011;3803;51.666;7.630;2022-12-18T01:19:41;36.10;;;21.98;;
7523;SDS011;3803;51.666;7.630;2022-12-18T01:20:02;35.87;;;22.50;;
7523;SDS011;3803;51.666;7.630;2022-12-18T01:20:23;37.00;;;22.80;;
7523;SDS011;3803;51.666;7.630;2022-12-18T01:20:44;36.08;;;22.50;;
7523;SDS011;3803;51.666;7.630;2022-12-18T01:21:05;37.35;;;22.45;;
7523;SDS011;3803;51.666;7.630;2022-12-18T01:21:31;38.35;;;22.58;;
7523;SDS011;3803;51.666;7.630;2022-12-18T01:21:51;39.03;;;22.80;;
7523;SDS011;3803;51.666;7.630;2022-12-18T01:22:12;39.97;;;23.10;;
7523;SDS011;3803;51.666;7.630;2022-12-18T01:22:32;40.47;;;24.05;;
7523;SDS011;3803;51.666;7.630;2022-12-18T01:22:54;38.15;;;23.30;;
7523;SDS011;3803;51.666;7.630;2022-12-18T01:23:14;38.90;;;22.27;;
7523;SDS011;3803;51.666;7.630;2022-12-18T01:23:35;37.47;;;20.58;;
7523;SDS011;3803;51.666;7.630;2022-12-18T01:23:56;38.88;;;20.90;;
7523;SDS011;3803;51.666;7.630;2022-12-18T01:24:17;38.40;;;21.20;;
7523;SDS011;3803;51.666;7.630;2022-12-18T01:24:38;38.53;;;21.47;;
7523;SDS011;3803;51.666;7.630;2022-12-18T01:24:58;38.15;;;21.25;;
7523;SDS011;3803;51.666;7.630;2022-12-18T01:25:19;37.20;;;21.27;;
7523;SDS011;3803;51.666;7.630;2022-12-18T01:25:39;37.53;;;21.47;;
7523;SDS011;3803;51.666;7.630;2022-12-18T01:26:04;40.00;;;22.67;;
7523;SDS011;3803;51.666;7.630;2022-12-18T01:26:28;39.35;;;22.80;;
7523;SDS011;3803;51.666;7.630;2022-12-18T01:26:58;40.92;;;22.30;;
7523;SDS011;3803;51.666;7.630;2022-12-18T01:27:19;39.30;;;21.02;;
7523;SDS011;3803;51.666;7.630;2022-12-18T01:27:39;39.80;;;21.67;;
7523;SDS011;3803;51.666;7.630;2022-12-18T01:28:00;39.33;;;22.15;;
7523;SDS011;3803;51.666;7.630;2022-12-18T01:28:29;39.17;;;21.50;;
7523;SDS011;3803;51.666;7.630;2022-12-18T01:28:50;38.42;;;21.70;;
7523;SDS011;3803;51.666;7.630;2022-12-18T01:29:11;38.13;;;21.45;;
7523;SDS011;3803;51.666;7.630;2022-12-18T01:29:31;37.38;;;21.33;;
7523;SDS011;3803;51.666;7.630;2022-12-18T01:29:52;38.37;;;21.20;;
7523;SDS011;3803;51.666;7.630;2022-12-18T01:30:13;39.78;;;21.73;;
7523;SDS011;3803;51.666;7.630;2022-12-18T01:30:34;40.92;;;22.25;;
7523;SDS011;3803;51.666;7.630;2022-12-18T01:30:55;40.92;;;22.65;;
7523;SDS011;3803;51.666;7.630;2022-12-18T01:31:20;40.40;;;22.35;;
7523;SDS011;3803;51.666;7.630;2022-12-18T01:31:45;37.83;;;21.60;;
7523;SDS011;3803;51.666;7.630;2022-12-18T01:32:06;36.60;;;21.58;;
7523;SDS011;3803;51.666;7.630;2022-12-18T01:32:29;35.22;;;21.92;;
7523;SDS011;3803;51.666;7.630;2022-12-18T01:32:50;35.33;;;22.30;;
7523;SDS011;3803;51.666;7.630;2022-12-18T01:33:52;36.90;;;21.67;;
7523;SDS011;3803;51.666;7.630;2022-12-18T01:34:13;36.28;;;21.50;;
7523;SDS011;3803;51.666;7.630;2022-12-18T01:34:36;38.72;;;21.35;;
7523;SDS011;3803;51.666;7.630;2022-12-18T01:34:57;41.15;;;21.73;;
7523;SDS011;3803;51.666;7.630;2022-12-18T01:35:18;40.25;;;21.98;;
7523;SDS011;3803;51.666;7.630;2022-12-18T01:35:41;39.03;;;22.60;;
7523;SDS011;3803;51.666;7.630;2022-12-18T01:36:02;37.80;;;22.58;;
7523;SDS011;3803;51.666;7.630;2022-12-18T01:36:29;38.88;;;22.90;;
7523;SDS011;3803;51.666;7.630;2022-12-18T01:36:52;38.30;;;22.38;;
7523;SDS011;3803;51.666;7.630;2022-12-18T01:37:13;38.92;;;23.23;;
7523;SDS011;3803;51.666;7.630;2022-12-18T01:37:33;38.03;;;22.33;;
7523;SDS011;3803;51.666;7.630;2022-12-18T01:37:54;39.63;;;22.17;;
7523;SDS011;3803;51.666;7.630;2022-12-18T01:38:15;38.35;;;20.55;;
7523;SDS011;3803;51.666;7.630;2022-12-18T01:38:36;37.85;;;21.38;;
7523;SDS011;3803;51.666;7.630;2022-12-18T01:38:58;38.23;;;22.03;;
7523;SDS011;3803;51.666;7.630;2022-12-18T01:39:19;37.65;;;22.20;;
7523;SDS011;3803;51.666;7.630;2022-12-18T01:39:40;37.03;;;22.00;;
7523;SDS011;3803;51.666;7.630;2022-12-18T01:40:01;37.75;;;22.63;;
7523;SDS011;3803;51.666;7.630;2022-12-18T01:40:21;36.43;;;22.93;;
7523;SDS011;3803;51.666;7.630;2022-12-18T01:40:45;37.28;;;22.88;;
7523;SDS011;3803;51.666;7.630;2022-12-18T01:41:08;40.92;;;22.65;;
7523;SDS011;3803;51.666;7.630;2022-12-18T01:41:29;40.75;;;22.52;;
7523;SDS011;3803;51.666;7.630;2022-12-18T01:42:11;37.08;;;21.95;;
7523;SDS011;3803;51.666;7.630;2022-12-18T01:42:34;37.95;;;22.63;;
7523;SDS011;3803;51.666;7.630;2022-12-18T01:42:55;38.17;;;22.40;;
7523;SDS011;3803;51.666;7.630;2022-12-18T01:43:16;39.15;;;22.20;;
7523;SDS011;3803;51.666;7.630;2022-12-18T01:43:44;38.55;;;21.13;;
7523;SDS011;3803;51.666;7.630;2022-12-18T01:44:46;37.22;;;21.55;;
7523;SDS011;3803;51.666;7.630;2022-12-18T01:45:33;36.33;;;21.45;;
7523;SDS011;3803;51.666;7.630;2022-12-18T01:45:55;34.58;;;20.63;;
7523;SDS011;3803;51.666;7.630;2022-12-18T01:46:19;37.70;;;20.50;;
7523;SDS011;3803;51.666;7.630;2022-12-18T01:46:44;37.40;;;20.30;;
7523;SDS011;3803;51.666;7.630;2022-12-18T01:47:05;34.47;;;20.48;;
7523;SDS011;3803;51.666;7.630;2022-12-18T01:47:53;32.42;;;20.60;;
7523;SDS011;3803;51.666;7.630;2022-12-18T01:48:16;36.65;;;22.30;;
7523;SDS011;3803;51.666;7.630;2022-12-18T01:48:37;36.97;;;22.03;;
7523;SDS011;3803;51.666;7.630;2022-12-18T01:49:00;34.40;;;21.40;;
7523;SDS011;3803;51.666;7.630;2022-12-18T01:49:21;34.22;;;20.67;;
7523;SDS011;3803;51.666;7.630;2022-12-18T01:49:42;36.47;;;21.92;;
7523;SDS011;3803;51.666;7.630;2022-12-18T01:50:07;37.07;;;21.80;;
7523;SDS011;3803;51.666;7.630;2022-12-18T01:50:30;35.72;;;21.63;;
7523;SDS011;3803;51.666;7.630;2022-12-18T01:50:52;36.60;;;22.02;;
7523;SDS011;3803;51.666;7.630;2022-12-18T01:51:12;36.67;;;22.43;;
7523;SDS011;3803;51.666;7.630;2022-12-18T01:51:34;34.24;;;22.12;;
7523;SDS011;3803;51.666;7.630;2022-12-18T01:51:55;34.43;;;21.20;;
7523;SDS011;3803;51.666;7.630;2022-12-18T01:52:15;35.88;;;20.73;;
7523;SDS011;3803;51.666;7.630;2022-12-18T01:52:38;37.20;;;20.70;;
7523;SDS011;3803;51.666;7.630;2022-12-18T01:53:06;34.15;;;20.90;;
7523;SDS011;3803;51.666;7.630;2022-12-18T01:53:31;32.50;;;21.05;;
7523;SDS011;3803;51.666;7.630;2022-12-18T01:53:52;32.58;;;20.38;;
7523;SDS011;3803;51.666;7.630;2022-12-18T01:54:12;33.90;;;19.40;;
7523;SDS011;3803;51.666;7.630;2022-12-18T01:54:33;35.60;;;19.60;;
7523;SDS011;3803;51.666;7.630;2022-12-18T01:54:53;36.23;;;20.57;;
7523;SDS011;3803;51.666;7.630;2022-12-18T01:55:16;38.03;;;21.50;;
7523;SDS011;3803;51.666;7.630;2022-12-18T01:55:43;38.03;;;21.77;;
7523;SDS011;3803;51.666;7.630;2022-12-18T01:56:21;36.17;;;21.77;;
7523;SDS011;3803;51.666;7.630;2022-12-18T01:56:43;34.72;;;21.45;;
7523;SDS011;3803;51.666;7.630;2022-12-18T01:57:04;34.77;;;21.40;;
7523;SDS011;3803;51.666;7.630;2022-12-18T01:57:24;34.07;;;21.50;;
7523;SDS011;3803;51.666;7.630;2022-12-18T01:57:46;37.10;;;22.08;;
7523;SDS011;3803;51.666;7.630;2022-12-18T01:58:07;38.35;;;22.55;;
7523;SDS011;3803;51.666;7.630;2022-12-18T01:58:50;40.55;;;22.70;;
7523;SDS011;3803;51.666;7.630;2022-12-18T01:59:12;36.63;;;21.20;;
7523;SDS011;3803;51.666;7.630;2022-12-18T01:59:34;35.55;;;20.95;;
7523;SDS011;3803;51.666;7.630;2022-12-18T01:59:59;35.53;;;21.58;;
7523;SDS011;3803;51.666;7.630;2022-12-18T02:00:33;38.40;;;22.38;;
7523;SDS011;3803;51.666;7.630;2022-12-18T02:00:54;38.58;;;21.95;;
7523;SDS011;3803;51.666;7.630;2022-12-18T02:01:16;37.50;;;21.17;;
7523;SDS011;3803;51.666;7.630;2022-12-18T02:01:37;37.90;;;21.67;;
7523;SDS011;3803;51.666;7.630;2022-12-18T02:01:59;38.15;;;21.90;;
7523;SDS011;3803;51.666;7.630;2022-12-18T02:02:20;37.60;;;21.75;;
7523;SDS011;3803;51.666;7.630;2022-12-18T02:02:41;35.15;;;20.85;;
7523;SDS011;3803;51.666;7.630;2022-12-18T02:03:04;34.28;;;19.73;;
7523;SDS011;3803;51.666;7.630;2022-12-18T02:03:24;36.75;;;20.17;;
7523;SDS011;3803;51.666;7.630;2022-12-18T02:03:45;38.13;;;20.90;;
7523;SDS011;3803;51.666;7.630;2022-12-18T02:04:22;39.47;;;21.33;;
7523;SDS011;3803;51.666;7.630;2022-12-18T02:04:43;35.45;;;20.02;;
7523;SDS011;3803;51.666;7.630;2022-12-18T02:05:04;36.30;;;21.00;;
7523;SDS011;3803;51.666;7.630;2022-12-18T02:06:13;36.25;;;21.80;;
7523;SDS011;3803;51.666;7.630;2022-12-18T02:06:39;35.85;;;20.83;;
7523;SDS011;3803;51.666;7.630;2022-12-18T02:07:04;36.00;;;21.02;;
7523;SDS011;3803;51.666;7.630;2022-12-18T02:07:37;36.67;;;21.65;;
7523;SDS011;3803;51.666;7.630;2022-12-18T02:08:06;36.97;;;21.70;;
7523;SDS011;3803;51.666;7.630;2022-12-18T02:08:35;36.67;;;21.00;;
7523;SDS011;3803;51.666;7.630;2022-12-18T02:09:09;35.58;;;20.90;;
7523;SDS011;3803;51.666;7.630;2022-12-18T02:09:35;34.58;;;19.92;;
7523;SDS011;3803;51.666;7.630;2022-12-18T02:10:47;34.58;;;19.75;;
7523;SDS011;3803;51.666;7.630;2022-12-18T02:11:27;36.97;;;21.30;;
7523;SDS011;3803;51.666;7.630;2022-12-18T02:12:06;38.58;;;21.00;;
7523;SDS011;3803;51.666;7.630;2022-12-18T02:12:41;36.50;;;20.85;;
7523;SDS011;3803;51.666;7.630;2022-12-18T02:14:44;40.28;;;21.02;;
7523;SDS011;3803;51.666;7.630;2022-12-18T02:15:15;38.33;;;20.42;;
7523;SDS011;3803;51.666;7.630;2022-12-18T02:16:01;35.25;;;20.48;;
7523;SDS011;3803;51.666;7.630;2022-12-18T02:17:35;36.03;;;19.40;;
7523;SDS011;3803;51.666;7.630;2022-12-18T02:18:12;36.55;;;19.98;;
7523;SDS011;3803;51.666;7.630;2022-12-18T02:18:41;37.50;;;20.15;;
7523;SDS011;3803;51.666;7.630;2022-12-18T02:19:06;37.88;;;20.30;;
7523;SDS011;3803;51.666;7.630;2022-12-18T02:21:17;29.80;;;18.70;;
7523;SDS011;3803;51.666;7.630;2022-12-18T02:21:51;32.15;;;19.92;;
7523;SDS011;3803;51.666;7.630;2022-12-18T02:24:10;32.83;;;19.30;;
7523;SDS011;3803;51.666;7.630;2022-12-18T02:27:06;34.92;;;20.27;;
7523;SDS011;3803;51.666;7.630;2022-12-18T02:27:30;34.03;;;19.77;;
7523;SDS011;3803;51.666;7.630;2022-12-18T02:27:54;32.30;;;19.58;;
7523;SDS011;3803;51.666;7.630;2022-12-18T02:28:18;32.42;;;19.65;;
7523;SDS011;3803;51.666;7.630;2022-12-18T02:29:22;32.20;;;17.95;;
7523;SDS011;3803;51.666;7.630;2022-12-18T02:29:50;36.20;;;19.02;;
7523;SDS011;3803;51.666;7.630;2022-12-18T02:30:13;34.30;;;19.63;;
7523;SDS011;3803;51.666;7.630;2022-12-18T02:30:35;31.38;;;19.77;;
7523;SDS011;3803;51.666;7.630;2022-12-18T02:30:58;32.42;;;20.50;;
7523;SDS011;3803;51.666;7.630;2022-12-18T02:31:24;37.70;;;21.00;;
7523;SDS011;3803;51.666;7.630;2022-12-18T02:31:49;38.50;;;20.95;;
7523;SDS011;3803;51.666;7.630;2022-12-18T02:32:27;38.22;;;21.15;;
7523;SDS011;3803;51.666;7.630;2022-12-18T02:32:52;37.80;;;21.10;;